createdAt,value
2022-09-27T00:01:12.285Z,860.43
2022-09-27T00:03:40.525Z,868.40
2022-09-27T00:06:10.453Z,869.80
2022-09-27T00:08:40.097Z,866.20
2022-09-27T00:11:13.606Z,865.10
2022-09-27T00:13:42.159Z,869.13
2022-09-27T00:16:11.161Z,864.27
2022-09-27T00:18:40.727Z,863.30
2022-09-27T00:21:10.405Z,859.53
2022-09-27T00:23:40.328Z,864.70
2022-09-27T00:26:10.522Z,867.00
2022-09-27T00:28:38.752Z,859.27
2022-09-27T00:31:15.486Z,862.53
2022-09-27T00:33:43.625Z,861.83
2022-09-27T00:36:11.776Z,861.43
2022-09-27T00:38:41.575Z,864.93
2022-09-27T00:41:11.248Z,857.50
2022-09-27T00:43:48.698Z,863.50
2022-09-27T00:46:22.383Z,865.13
2022-09-27T00:48:57.150Z,862.77
2022-09-27T00:51:25.590Z,867.97
2022-09-27T00:53:56.034Z,861.20
2022-09-27T00:56:27.569Z,869.57
2022-09-27T00:58:58.253Z,866.97
2022-09-27T01:01:26.444Z,863.10
2022-09-27T01:03:58.634Z,870.17
2022-09-27T01:06:27.112Z,866.63
2022-09-27T01:08:56.641Z,859.30
2022-09-27T01:11:37.381Z,868.33
2022-09-27T01:14:26.485Z,863.20
2022-09-27T01:17:00.166Z,862.23
2022-09-27T01:19:48.418Z,862.10
2022-09-27T01:22:18.846Z,859.07
2022-09-27T01:25:16.706Z,864.83
2022-09-27T01:28:09.634Z,860.53
2022-09-27T01:30:46.726Z,862.73
2022-09-27T01:33:25.859Z,862.17
2022-09-27T01:36:09.440Z,857.20
2022-09-27T01:38:46.096Z,860.27
2022-09-27T01:41:26.058Z,863.10
2022-09-27T01:44:24.975Z,864.30
2022-09-27T01:47:05.162Z,859.33
2022-09-27T01:49:50.070Z,863.80
2022-09-27T01:52:20.551Z,857.60
2022-09-27T01:54:53.024Z,855.03
2022-09-27T01:57:42.396Z,856.73
2022-09-27T02:00:17.463Z,861.50
2022-09-27T02:02:50.415Z,859.80
2022-09-27T02:05:37.518Z,858.67
2022-09-27T02:08:31.912Z,856.07
2022-09-27T02:11:10.167Z,848.60
2022-09-27T02:13:46.319Z,856.33
2022-09-27T02:16:45.669Z,856.20
2022-09-27T02:19:22.484Z,851.07
2022-09-27T02:21:57.166Z,851.27
2022-09-27T02:24:32.383Z,850.63
2022-09-27T02:27:07.342Z,855.30
2022-09-27T02:29:38.866Z,862.60
2022-09-27T02:32:07.851Z,850.13
2022-09-27T02:34:38.106Z,849.13
2022-09-27T02:37:06.296Z,851.50
2022-09-27T02:39:34.586Z,857.50
2022-09-27T02:42:06.454Z,847.70
2022-09-27T02:44:35.384Z,852.57
2022-09-27T02:47:22.704Z,847.63
2022-09-27T02:50:01.633Z,845.63
2022-09-27T02:52:57.257Z,852.70
2022-09-27T02:55:42.777Z,854.93
2022-09-27T02:58:39.321Z,847.93
2022-09-27T03:01:26.359Z,853.43
2022-09-27T03:04:10.750Z,850.77
2022-09-27T03:06:41.039Z,849.00
2022-09-27T03:09:15.660Z,855.50
2022-09-27T03:11:44.176Z,850.33
2022-09-27T03:14:12.369Z,848.03
2022-09-27T03:16:48.051Z,853.53
2022-09-27T03:19:51.343Z,850.30
2022-09-27T03:22:44.870Z,847.57
2022-09-27T03:25:13.137Z,849.00
2022-09-27T03:27:41.492Z,843.53
2022-09-27T03:30:11.254Z,848.40
2022-09-27T03:32:44.202Z,846.27
2022-09-27T03:35:30.937Z,842.70
2022-09-27T03:38:00.414Z,844.93
2022-09-27T03:40:28.511Z,840.53
2022-09-27T03:42:56.902Z,843.73
2022-09-27T03:45:24.952Z,842.20
2022-09-27T03:47:53.456Z,849.53
2022-09-27T03:50:21.690Z,842.77
2022-09-27T03:52:49.773Z,843.73
2022-09-27T03:55:19.388Z,847.27
2022-09-27T03:57:47.858Z,846.03
2022-09-27T04:00:18.065Z,838.10
2022-09-27T04:02:46.478Z,838.83
2022-09-27T04:05:37.962Z,839.57
2022-09-27T04:08:11.796Z,841.93
2022-09-27T04:10:41.373Z,839.97
2022-09-27T04:13:09.580Z,836.37
2022-09-27T04:15:47.405Z,841.27
2022-09-27T04:18:40.952Z,829.97
2022-09-27T04:21:38.113Z,840.20
2022-09-27T04:24:07.726Z,833.70
2022-09-27T04:26:38.137Z,839.10
2022-09-27T04:29:12.165Z,836.87
2022-09-27T04:31:45.846Z,839.10
2022-09-27T04:34:54.845Z,830.33
2022-09-27T04:37:25.876Z,822.43
2022-09-27T04:39:57.215Z,832.30
2022-09-27T04:42:28.684Z,835.40
2022-09-27T04:44:57.059Z,837.10
2022-09-27T04:47:25.258Z,835.77
2022-09-27T04:49:53.375Z,847.80
2022-09-27T04:52:21.581Z,838.13
2022-09-27T04:54:50.338Z,837.23
2022-09-27T04:57:18.665Z,846.73
2022-09-27T04:59:48.145Z,843.27
2022-09-27T05:02:16.677Z,837.53
2022-09-27T05:05:06.727Z,837.47
2022-09-27T05:07:39.823Z,837.30
2022-09-27T05:10:13.008Z,839.00
2022-09-27T05:12:41.765Z,839.30
2022-09-27T05:15:12.350Z,849.17
2022-09-27T05:18:00.424Z,841.33
2022-09-27T05:20:54.406Z,838.03
2022-09-27T05:23:28.312Z,841.63
2022-09-27T05:25:56.484Z,841.43
2022-09-27T05:28:25.188Z,837.13
2022-09-27T05:30:54.648Z,835.07
2022-09-27T05:33:23.221Z,836.63
2022-09-27T05:36:30.675Z,826.63
2022-09-27T05:38:58.749Z,839.47
2022-09-27T05:41:27.575Z,834.67
2022-09-27T05:43:56.278Z,831.70
2022-09-27T05:46:25.825Z,836.97
2022-09-27T05:48:54.122Z,828.87
2022-09-27T05:51:22.243Z,831.90
2022-09-27T05:53:50.435Z,834.83
2022-09-27T05:56:26.051Z,829.13
2022-09-27T05:59:16.068Z,820.40
2022-09-27T06:02:10.450Z,826.77
2022-09-27T06:05:13.678Z,815.97
2022-09-27T06:07:41.738Z,828.70
2022-09-27T06:10:18.344Z,827.10
2022-09-27T06:12:46.721Z,830.03
2022-09-27T06:15:29.936Z,826.77
2022-09-27T06:18:04.952Z,830.13
2022-09-27T06:20:33.911Z,821.67
2022-09-27T06:23:07.492Z,826.37
2022-09-27T06:25:36.077Z,821.17
2022-09-27T06:28:30.494Z,821.37
2022-09-27T06:31:00.432Z,824.93
2022-09-27T06:33:39.187Z,827.63
2022-09-27T06:36:08.514Z,825.43
2022-09-27T06:38:39.493Z,823.73
2022-09-27T06:41:28.870Z,813.87
2022-09-27T06:44:26.527Z,811.57
2022-09-27T06:47:13.364Z,811.83
2022-09-27T06:50:05.611Z,815.43
2022-09-27T06:52:35.035Z,818.07
2022-09-27T06:55:03.517Z,813.67
2022-09-27T06:57:50.558Z,820.27
2022-09-27T07:00:27.708Z,806.73
2022-09-27T07:03:09.164Z,800.67
2022-09-27T07:05:58.960Z,794.23
2022-09-27T07:08:52.063Z,784.33
2022-09-27T07:11:20.391Z,796.20
2022-09-27T07:13:48.515Z,794.80
2022-09-27T07:16:16.819Z,787.80
2022-09-27T07:18:45.194Z,797.10
2022-09-27T07:21:16.291Z,796.97
2022-09-27T07:23:44.350Z,795.10
2022-09-27T07:26:14.852Z,793.03
2022-09-27T07:28:43.015Z,790.50
2022-09-27T07:31:14.866Z,790.83
2022-09-27T07:33:43.585Z,792.63
2022-09-27T07:36:14.846Z,785.47
2022-09-27T07:38:46.810Z,790.40
2022-09-27T07:41:16.968Z,784.37
2022-09-27T07:43:45.700Z,788.77
2022-09-27T07:46:14.992Z,787.40
2022-09-27T07:48:57.890Z,789.37
2022-09-27T07:51:43.048Z,787.53
2022-09-27T07:54:29.986Z,779.47
2022-09-27T07:57:06.901Z,773.70
2022-09-27T07:59:45.305Z,772.97
2022-09-27T08:02:17.804Z,772.57
2022-09-27T08:04:47.979Z,866.50
2022-09-27T08:07:17.765Z,831.97
2022-09-27T08:09:49.472Z,820.40
2022-09-27T08:12:18.101Z,815.70
2022-09-27T08:14:48.411Z,809.50
2022-09-27T08:17:18.299Z,806.13
2022-09-27T08:20:06.857Z,805.83
2022-09-27T08:23:16.134Z,805.10
2022-09-27T08:25:45.402Z,813.27
2022-09-27T08:28:34.854Z,826.03
2022-09-27T08:31:07.112Z,826.97
2022-09-27T08:33:41.085Z,825.90
2022-09-27T08:36:14.085Z,838.47
2022-09-27T08:38:43.735Z,845.50
2022-09-27T08:41:18.508Z,852.20
2022-09-27T08:43:52.186Z,840.97
2022-09-27T08:46:28.890Z,845.73
2022-09-27T08:49:02.611Z,851.00
2022-09-27T08:51:31.778Z,828.73
2022-09-27T08:54:05.329Z,842.37
2022-09-27T08:56:33.755Z,848.50
2022-09-27T08:59:07.595Z,853.37
2022-09-27T09:01:36.460Z,854.90
2022-09-27T09:04:12.848Z,861.23
2022-09-27T09:06:44.451Z,862.27
2022-09-27T09:09:24.040Z,862.47
2022-09-27T09:12:30.225Z,868.00
2022-09-27T09:15:06.948Z,859.83
2022-09-27T09:17:44.328Z,862.13
2022-09-27T09:20:55.470Z,848.50
2022-09-27T09:23:44.967Z,866.07
2022-09-27T09:26:18.588Z,883.90
2022-09-27T09:28:59.177Z,894.20
2022-09-27T09:31:35.688Z,888.00
2022-09-27T09:34:10.471Z,891.07
2022-09-27T09:36:43.945Z,905.23
2022-09-27T09:39:16.491Z,910.40
2022-09-27T09:41:55.088Z,912.90
2022-09-27T09:44:27.475Z,904.97
2022-09-27T09:46:57.997Z,912.50
2022-09-27T09:49:31.002Z,905.97
2022-09-27T09:52:07.972Z,911.00
2022-09-27T09:54:41.199Z,910.40
2022-09-27T09:57:15.203Z,903.07
2022-09-27T09:59:46.634Z,903.30
2022-09-27T10:02:24.337Z,909.53
2022-09-27T10:04:57.037Z,903.20
2022-09-27T10:07:26.315Z,912.37
2022-09-27T10:09:57.324Z,907.63
2022-09-27T10:12:47.244Z,920.80
2022-09-27T10:15:18.780Z,926.30
2022-09-27T10:17:51.491Z,925.90
2022-09-27T10:20:29.676Z,929.50
2022-09-27T10:23:02.515Z,922.87
2022-09-27T10:25:53.977Z,914.87
2022-09-27T10:28:52.484Z,902.50
2022-09-27T10:31:37.414Z,914.17
2022-09-27T10:34:21.571Z,922.60
2022-09-27T10:37:11.712Z,911.23
2022-09-27T10:39:45.512Z,926.90
2022-09-27T10:42:26.845Z,930.03
2022-09-27T10:44:57.420Z,925.60
2022-09-27T10:47:33.820Z,939.80
2022-09-27T10:50:08.045Z,938.80
2022-09-27T10:53:04.215Z,947.90
2022-09-27T10:55:35.222Z,943.67
2022-09-27T10:58:03.897Z,938.33
2022-09-27T11:00:34.674Z,933.77
2022-09-27T11:03:05.921Z,944.47
2022-09-27T11:05:38.258Z,931.77
2022-09-27T11:08:24.241Z,933.33
2022-09-27T11:11:17.367Z,944.50
2022-09-27T11:13:59.411Z,929.10
2022-09-27T11:16:42.022Z,926.27
2022-09-27T11:19:22.032Z,935.80
2022-09-27T11:21:54.959Z,932.60
2022-09-27T11:24:50.315Z,939.07
2022-09-27T11:27:29.911Z,934.97
2022-09-27T11:30:06.297Z,922.00
2022-09-27T11:33:10.419Z,930.07
2022-09-27T11:35:47.392Z,932.13
2022-09-27T11:38:47.902Z,935.10
2022-09-27T11:41:33.851Z,947.70
2022-09-27T11:44:30.061Z,944.67
2022-09-27T11:47:06.046Z,955.73
2022-09-27T11:49:53.691Z,953.00
2022-09-27T11:52:36.716Z,958.10
2022-09-27T11:55:21.626Z,951.93
2022-09-27T11:58:00.799Z,946.17
2022-09-27T12:00:40.580Z,944.87
2022-09-27T12:03:44.778Z,941.30
2022-09-27T12:06:22.540Z,946.83
2022-09-27T12:09:03.696Z,933.57
2022-09-27T12:11:37.939Z,952.07
2022-09-27T12:14:10.738Z,944.67
2022-09-27T12:16:40.549Z,946.70
2022-09-27T12:19:13.851Z,947.37
2022-09-27T12:21:56.274Z,943.97
2022-09-27T12:24:26.003Z,934.30
2022-09-27T12:27:16.633Z,948.87
2022-09-27T12:29:45.790Z,948.20
2022-09-27T12:32:18.855Z,929.57
2022-09-27T12:34:52.206Z,926.87
2022-09-27T12:37:26.181Z,940.77
2022-09-27T12:40:00.466Z,917.07
2022-09-27T12:42:37.400Z,924.20
2022-09-27T12:45:16.347Z,891.87
2022-09-27T12:47:58.368Z,882.00
2022-09-27T12:50:31.908Z,900.83
2022-09-27T12:53:05.453Z,917.67
2022-09-27T12:56:02.968Z,923.67
2022-09-27T12:58:51.017Z,919.80
2022-09-27T13:01:28.649Z,944.17
2022-09-27T13:04:27.740Z,945.00
2022-09-27T13:07:10.966Z,946.83
2022-09-27T13:09:58.092Z,950.03
2022-09-27T13:12:27.808Z,947.53
2022-09-27T13:15:01.393Z,937.87
2022-09-27T13:17:48.766Z,942.63
2022-09-27T13:20:48.196Z,939.83
2022-09-27T13:23:53.621Z,940.70
2022-09-27T13:26:47.085Z,931.13
2022-09-27T13:29:30.788Z,941.57
2022-09-27T13:32:23.807Z,939.23
2022-09-27T13:35:20.163Z,932.70
2022-09-27T13:37:59.057Z,934.27
2022-09-27T13:40:33.679Z,917.30
2022-09-27T13:43:47.660Z,931.23
2022-09-27T13:46:28.151Z,968.73
2022-09-27T13:48:59.835Z,970.87
2022-09-27T13:51:44.430Z,960.30
2022-09-27T13:54:38.808Z,955.93
2022-09-27T13:57:43.065Z,953.53
2022-09-27T14:00:18.364Z,957.43
2022-09-27T14:03:00.918Z,957.37
2022-09-27T14:05:42.572Z,952.53
2022-09-27T14:08:20.583Z,956.17
2022-09-27T14:10:49.209Z,961.13
2022-09-27T14:13:21.100Z,966.13
2022-09-27T14:16:01.903Z,965.00
2022-09-27T14:18:30.998Z,968.03
2022-09-27T14:21:13.389Z,969.20
2022-09-27T14:23:52.428Z,958.63
2022-09-27T14:26:25.483Z,956.67
2022-09-27T14:28:53.596Z,967.40
2022-09-27T14:31:33.352Z,964.37
2022-09-27T14:34:21.814Z,962.07
2022-09-27T14:37:07.230Z,958.37
2022-09-27T14:39:54.759Z,960.83
2022-09-27T14:42:33.010Z,967.63
2022-09-27T14:45:07.268Z,962.43
2022-09-27T14:47:36.650Z,950.77
2022-09-27T14:50:14.814Z,951.37
2022-09-27T14:52:42.792Z,955.40
2022-09-27T14:55:15.265Z,957.43
2022-09-27T14:57:48.094Z,943.63
2022-09-27T15:00:21.723Z,950.37
2022-09-27T15:02:54.241Z,961.60
2022-09-27T15:05:24.739Z,940.93
2022-09-27T15:07:55.729Z,968.27
2022-09-27T15:10:27.238Z,946.13
2022-09-27T15:12:59.873Z,960.13
2022-09-27T15:15:30.420Z,941.53
2022-09-27T15:18:00.228Z,960.83
2022-09-27T15:20:34.649Z,964.07
2022-09-27T15:23:04.520Z,984.30
2022-09-27T15:25:35.353Z,964.87
2022-09-27T15:28:05.956Z,959.47
2022-09-27T15:30:38.752Z,950.43
2022-09-27T15:33:09.259Z,943.50
2022-09-27T15:35:37.420Z,958.47
2022-09-27T15:38:13.971Z,958.67
2022-09-27T15:41:10.507Z,973.93
2022-09-27T15:43:41.599Z,973.23
2022-09-27T15:46:39.214Z,980.73
2022-09-27T15:49:31.287Z,991.10
2022-09-27T15:52:00.950Z,982.27
2022-09-27T15:54:30.697Z,964.57
2022-09-27T15:57:04.346Z,952.93
2022-09-27T15:59:34.859Z,954.57
2022-09-27T16:02:08.162Z,917.93
2022-09-27T16:04:37.702Z,940.40
2022-09-27T16:07:08.965Z,935.40
2022-09-27T16:09:37.296Z,921.00
2022-09-27T16:12:05.620Z,931.67
2022-09-27T16:14:36.237Z,978.83
2022-09-27T16:17:04.182Z,991.57
2022-09-27T16:19:33.452Z,992.00
2022-09-27T16:22:03.669Z,999.37
2022-09-27T16:24:32.105Z,998.73
2022-09-27T16:27:00.225Z,998.67
2022-09-27T16:29:28.134Z,993.77
2022-09-27T16:31:56.037Z,999.90
2022-09-27T16:34:24.205Z,998.10
2022-09-27T16:36:52.184Z,999.90
2022-09-27T16:39:21.583Z,999.90
2022-09-27T16:41:52.144Z,999.90
2022-09-27T16:44:20.118Z,999.90
2022-09-27T16:46:48.126Z,999.90
2022-09-27T16:49:32.668Z,999.90
2022-09-27T16:52:00.663Z,997.60
2022-09-27T16:54:30.710Z,967.03
2022-09-27T16:56:59.513Z,955.90
2022-09-27T16:59:27.650Z,905.53
2022-09-27T17:01:57.222Z,731.50
2022-09-27T17:04:25.354Z,971.23
2022-09-27T17:06:53.278Z,879.67
2022-09-27T17:09:22.093Z,967.10
2022-09-27T17:11:52.047Z,999.90
2022-09-27T17:14:20.708Z,998.40
2022-09-27T17:16:49.783Z,720.73
2022-09-27T17:19:18.816Z,588.97
2022-09-27T17:21:47.304Z,740.03
2022-09-27T17:24:15.411Z,727.83
2022-09-27T17:26:43.676Z,731.47
2022-09-27T17:29:15.864Z,728.57
2022-09-27T17:31:44.568Z,728.03
2022-09-27T17:34:15.981Z,725.60
2022-09-27T17:36:48.331Z,735.47
2022-09-27T17:39:18.052Z,734.00
2022-09-27T17:41:46.155Z,725.33
2022-09-27T17:44:18.215Z,716.33
2022-09-27T17:46:46.726Z,710.73
2022-09-27T17:49:32.536Z,703.50
2022-09-27T17:52:00.668Z,698.53
2022-09-27T17:54:28.801Z,710.30
2022-09-27T17:56:57.248Z,708.93
2022-09-27T17:59:26.923Z,687.37
2022-09-27T18:01:55.479Z,680.53
2022-09-27T18:04:23.569Z,676.27
2022-09-27T18:06:51.517Z,666.53
2022-09-27T18:09:19.744Z,652.07
2022-09-27T18:11:48.267Z,658.53
2022-09-27T18:14:16.354Z,653.33
2022-09-27T18:16:45.820Z,653.77
2022-09-27T18:19:16.375Z,655.83
2022-09-27T18:21:44.727Z,646.53
2022-09-27T18:24:14.248Z,650.00
2022-09-27T18:26:42.466Z,648.47
2022-09-27T18:29:12.122Z,648.87
2022-09-27T18:31:42.119Z,649.97
2022-09-27T18:34:14.369Z,650.90
2022-09-27T18:36:43.946Z,655.70
2022-09-27T18:39:14.938Z,646.70
2022-09-27T18:41:43.072Z,659.27
2022-09-27T18:44:13.523Z,669.20
2022-09-27T18:46:41.849Z,674.90
2022-09-27T18:49:11.395Z,682.60
2022-09-27T18:51:43.983Z,692.73
2022-09-27T18:54:16.202Z,682.90
2022-09-27T18:56:44.324Z,689.93
2022-09-27T18:59:13.400Z,700.93
2022-09-27T19:01:45.065Z,707.97
2022-09-27T19:04:14.954Z,699.20
2022-09-27T19:06:44.495Z,704.10
2022-09-27T19:09:12.984Z,703.83
2022-09-27T19:11:41.055Z,707.13
2022-09-27T19:14:09.052Z,706.80
2022-09-27T19:16:36.973Z,713.97
2022-09-27T19:19:05.023Z,713.57
2022-09-27T19:21:32.963Z,715.00
2022-09-27T19:24:02.761Z,708.93
2022-09-27T19:26:30.688Z,697.77
2022-09-27T19:28:59.118Z,694.93
2022-09-27T19:31:29.539Z,699.20
2022-09-27T19:34:00.492Z,697.47
2022-09-27T19:36:29.357Z,697.97
2022-09-27T19:38:58.485Z,703.63
2022-09-27T19:41:28.491Z,703.63
2022-09-27T19:43:57.143Z,710.27
2022-09-27T19:46:26.496Z,712.13
2022-09-27T19:48:55.192Z,719.30
2022-09-27T19:51:24.694Z,716.10
2022-09-27T19:53:53.246Z,711.03
2022-09-27T19:56:21.770Z,712.20
2022-09-27T19:58:52.155Z,703.83
2022-09-27T20:01:22.309Z,707.97
2022-09-27T20:03:53.640Z,700.60
2022-09-27T20:06:23.847Z,691.27
2022-09-27T20:08:52.881Z,686.90
2022-09-27T20:11:24.622Z,680.43
2022-09-27T20:13:54.979Z,688.00
2022-09-27T20:16:26.586Z,677.63
2022-09-27T20:18:56.588Z,680.90
2022-09-27T20:21:26.424Z,685.40
2022-09-27T20:23:55.880Z,686.33
2022-09-27T20:26:25.232Z,686.17
2022-09-27T20:28:57.092Z,680.60
2022-09-27T20:31:26.742Z,670.47
2022-09-27T20:33:58.200Z,665.07
2022-09-27T20:36:28.119Z,636.87
2022-09-27T20:39:02.333Z,637.87
2022-09-27T20:41:32.728Z,625.33
2022-09-27T20:44:04.742Z,624.60
2022-09-27T20:46:33.971Z,628.03
2022-09-27T20:49:03.979Z,627.97
2022-09-27T20:51:33.801Z,635.40
2022-09-27T20:54:02.901Z,636.73
2022-09-27T20:56:38.580Z,636.83
2022-09-27T20:59:14.746Z,634.60
2022-09-27T21:01:43.661Z,634.13
2022-09-27T21:04:12.897Z,633.80
2022-09-27T21:06:41.507Z,633.20
2022-09-27T21:09:10.338Z,633.20
2022-09-27T21:11:38.714Z,628.23
2022-09-27T21:14:08.043Z,629.47
2022-09-27T21:16:36.527Z,632.27
2022-09-27T21:19:07.099Z,633.23
2022-09-27T21:21:35.130Z,638.20
2022-09-27T21:24:03.393Z,634.53
2022-09-27T21:26:33.113Z,628.53
2022-09-27T21:29:02.595Z,636.07
2022-09-27T21:31:33.214Z,633.27
2022-09-27T21:34:03.560Z,636.63
2022-09-27T21:36:33.647Z,646.67
2022-09-27T21:39:02.057Z,646.93
2022-09-27T21:41:30.272Z,640.33
2022-09-27T21:43:58.329Z,647.53
2022-09-27T21:46:28.480Z,644.73
2022-09-27T21:48:59.365Z,652.60
2022-09-27T21:51:29.172Z,647.17
2022-09-27T21:53:58.417Z,653.00
2022-09-27T21:56:27.509Z,653.87
2022-09-27T21:58:55.567Z,659.07
2022-09-27T22:01:25.222Z,659.50
2022-09-27T22:03:55.538Z,672.47
2022-09-27T22:06:26.928Z,671.63
2022-09-27T22:08:55.450Z,684.63
2022-09-27T22:11:25.104Z,691.53
2022-09-27T22:13:53.374Z,697.47
2022-09-27T22:16:22.581Z,690.27
2022-09-27T22:18:52.283Z,697.93
2022-09-27T22:21:22.925Z,718.13
2022-09-27T22:23:55.913Z,716.73
2022-09-27T22:26:25.802Z,742.43
2022-09-27T22:28:53.850Z,754.87
2022-09-27T22:31:22.428Z,765.70
2022-09-27T22:33:51.163Z,761.33
2022-09-27T22:36:19.365Z,757.50
2022-09-27T22:38:47.703Z,764.23
2022-09-27T22:41:17.362Z,775.43
2022-09-27T22:43:45.377Z,773.70
2022-09-27T22:46:13.999Z,794.40
2022-09-27T22:48:42.607Z,784.57
2022-09-27T22:51:10.541Z,791.17
2022-09-27T22:53:39.035Z,786.73
2022-09-27T22:56:08.876Z,787.80
2022-09-27T22:58:38.544Z,779.07
2022-09-27T23:01:10.335Z,783.33
2022-09-27T23:03:38.403Z,783.20
2022-09-27T23:06:07.292Z,781.10
2022-09-27T23:08:36.178Z,782.53
2022-09-27T23:11:05.857Z,779.20
2022-09-27T23:13:34.615Z,776.20
2022-09-27T23:16:05.751Z,779.70
2022-09-27T23:18:34.157Z,775.30
2022-09-27T23:21:03.706Z,774.53
2022-09-27T23:23:32.047Z,765.40
2022-09-27T23:26:01.148Z,763.50
2022-09-27T23:28:30.013Z,766.50
2022-09-27T23:30:58.043Z,767.20
2022-09-27T23:33:27.939Z,764.07
2022-09-27T23:35:55.977Z,758.87
2022-09-27T23:38:23.933Z,763.10
2022-09-27T23:40:51.909Z,763.77
2022-09-27T23:43:19.893Z,767.23
2022-09-27T23:45:47.764Z,761.47
2022-09-27T23:48:15.751Z,760.47
2022-09-27T23:50:45.096Z,759.13
2022-09-27T23:53:13.038Z,757.10
2022-09-27T23:55:40.965Z,758.73
2022-09-27T23:58:08.832Z,756.33
